createdAt,value
2017-08-02T00:00:02.350Z,21.8
2017-08-02T00:01:01.360Z,21.8
2017-08-02T00:01:31.885Z,21.8
2017-08-02T00:02:02.291Z,21.8
2017-08-02T00:02:32.687Z,21.8
2017-08-02T00:03:03.218Z,21.8
2017-08-02T00:03:33.729Z,21.8
2017-08-02T00:04:59.499Z,21.8
2017-08-02T00:05:58.580Z,21.8
2017-08-02T00:06:58.288Z,21.8
2017-08-02T00:07:57.495Z,21.8
2017-08-02T00:08:57.095Z,21.8
2017-08-02T00:09:56.679Z,21.8
2017-08-02T00:10:55.899Z,21.8
2017-08-02T00:11:55.599Z,21.7
2017-08-02T00:12:54.690Z,21.7
2017-08-02T00:13:54.413Z,21.7
2017-08-02T00:14:53.629Z,21.7
2017-08-02T00:15:53.214Z,21.7
2017-08-02T00:16:23.615Z,21.7
2017-08-02T00:17:51.772Z,21.7
2017-08-02T00:18:51.475Z,21.7
2017-08-02T00:19:50.677Z,21.7
2017-08-02T00:20:50.155Z,21.7
2017-08-02T00:21:49.743Z,21.7
2017-08-02T00:22:48.818Z,21.7
2017-08-02T00:23:48.291Z,21.6
2017-08-02T00:24:47.763Z,21.6
2017-08-02T00:25:18.160Z,21.6
2017-08-02T00:26:46.567Z,21.6
2017-08-02T00:27:46.277Z,21.6
2017-08-02T00:28:45.357Z,21.6
2017-08-02T00:29:44.946Z,21.6
2017-08-02T00:30:44.543Z,21.6
2017-08-02T00:31:43.521Z,21.6
2017-08-02T00:32:43.116Z,21.6
2017-08-02T00:33:42.818Z,21.5
2017-08-02T00:34:42.028Z,21.5
2017-08-02T00:35:41.003Z,21.5
2017-08-02T00:36:40.713Z,21.5
2017-08-02T00:37:40.310Z,21.5
2017-08-02T00:39:39.287Z,21.5
2017-08-02T00:40:38.638Z,21.4
2017-08-02T00:41:38.230Z,21.4
2017-08-02T00:42:37.327Z,21.4
2017-08-02T00:43:36.928Z,21.4
2017-08-02T00:44:36.288Z,21.4
2017-08-02T00:46:35.256Z,21.3
2017-08-02T00:47:34.337Z,21.3
2017-08-02T00:48:34.054Z,21.3
2017-08-02T00:49:33.261Z,21.3
2017-08-02T00:50:32.969Z,21.3
2017-08-02T00:51:32.070Z,21.3
2017-08-02T00:52:31.654Z,21.3
2017-08-02T00:53:30.875Z,21.3
2017-08-02T00:54:30.367Z,21.3
2017-08-02T00:55:29.953Z,21.3
2017-08-02T00:56:00.356Z,21.3
2017-08-02T00:56:31.146Z,21.3
2017-08-02T00:57:01.424Z,21.3
2017-08-02T00:57:32.095Z,21.3
2017-08-02T00:58:28.283Z,21.3
2017-08-02T00:59:27.482Z,21.2
2017-08-02T01:00:27.083Z,21.2
2017-08-02T01:01:26.287Z,21.2
2017-08-02T01:02:25.500Z,21.2
2017-08-02T01:03:25.203Z,21.2
2017-08-02T01:04:24.185Z,21.2
2017-08-02T01:05:23.769Z,21.2
2017-08-02T01:06:23.369Z,21.2
2017-08-02T01:07:22.450Z,21.2
2017-08-02T01:08:22.167Z,21.2
2017-08-02T01:09:21.370Z,21.1
2017-08-02T01:10:20.857Z,21.1
2017-08-02T01:11:20.451Z,21.1
2017-08-02T01:11:50.848Z,21.1
2017-08-02T01:12:21.247Z,21.1
2017-08-02T01:13:19.318Z,21.1
2017-08-02T01:14:18.525Z,21.1
2017-08-02T01:15:18.246Z,21.1
2017-08-02T01:16:17.454Z,21.1
2017-08-02T01:17:16.658Z,21.1
2017-08-02T01:18:16.347Z,21.1
2017-08-02T01:19:15.822Z,21.1
2017-08-02T01:20:15.026Z,21.1
2017-08-02T01:21:14.734Z,21.1
2017-08-02T01:22:13.700Z,21.1
2017-08-02T01:23:13.413Z,21.1
2017-08-02T01:24:12.633Z,21.1
2017-08-02T01:25:12.232Z,21
2017-08-02T01:26:11.319Z,21
2017-08-02T01:27:11.026Z,21
2017-08-02T01:28:10.615Z,21
2017-08-02T01:29:09.577Z,21
2017-08-02T01:30:09.163Z,21
2017-08-02T01:31:08.768Z,21
2017-08-02T01:32:07.975Z,21
2017-08-02T01:33:07.073Z,21
2017-08-02T01:34:06.792Z,21
2017-08-02T01:35:06.397Z,21
2017-08-02T01:36:05.607Z,20.9
2017-08-02T01:37:04.820Z,21
2017-08-02T01:38:04.534Z,20.9
2017-08-02T01:39:03.390Z,20.9
2017-08-02T01:40:03.106Z,20.9
2017-08-02T01:41:02.576Z,20.9
2017-08-02T01:42:02.182Z,20.9
2017-08-02T01:43:01.267Z,20.9
2017-08-02T01:44:00.858Z,20.9
2017-08-02T01:45:00.450Z,20.9
2017-08-02T01:45:59.542Z,20.9
2017-08-02T01:46:59.123Z,20.9
2017-08-02T01:47:58.705Z,20.9
2017-08-02T01:48:57.792Z,20.8
2017-08-02T01:49:57.522Z,20.8
2017-08-02T01:50:56.730Z,20.8
2017-08-02T01:51:27.120Z,20.8
2017-08-02T01:51:57.919Z,20.8
2017-08-02T01:52:28.432Z,20.8
2017-08-02T01:52:58.894Z,20.8
2017-08-02T01:53:29.289Z,20.8
2017-08-02T01:54:54.156Z,20.8
2017-08-02T01:55:53.855Z,20.8
2017-08-02T01:56:52.945Z,20.8
2017-08-02T01:57:52.653Z,20.8
2017-08-02T01:58:51.747Z,20.7
2017-08-02T01:59:51.215Z,20.7
2017-08-02T02:00:50.684Z,20.7
2017-08-02T02:01:50.157Z,20.7
2017-08-02T02:02:49.356Z,20.7
2017-08-02T02:03:20.026Z,20.7
2017-08-02T02:03:50.412Z,20.7
2017-08-02T02:04:20.680Z,20.7
2017-08-02T02:04:51.205Z,20.7
2017-08-02T02:05:21.720Z,20.7
2017-08-02T02:05:52.271Z,20.7
2017-08-02T02:06:22.788Z,20.7
2017-08-02T02:07:46.538Z,20.7
2017-08-02T02:08:45.740Z,20.6
2017-08-02T02:09:45.333Z,20.6
2017-08-02T02:10:44.531Z,20.6
2017-08-02T02:11:44.245Z,20.6
2017-08-02T02:12:43.451Z,20.6
2017-08-02T02:13:43.034Z,20.6
2017-08-02T02:14:42.113Z,20.6
2017-08-02T02:15:41.701Z,20.6
2017-08-02T02:16:41.303Z,20.5
2017-08-02T02:17:40.509Z,20.5
2017-08-02T02:18:40.127Z,20.5
2017-08-02T02:19:39.217Z,20.5
2017-08-02T02:20:38.812Z,20.5
2017-08-02T02:21:38.010Z,20.5
2017-08-02T02:22:37.117Z,20.5
2017-08-02T02:23:07.392Z,20.5
2017-08-02T02:23:38.176Z,20.4
2017-08-02T02:24:08.584Z,20.4
2017-08-02T02:24:39.102Z,20.4
2017-08-02T02:25:35.797Z,20.4
2017-08-02T02:26:35.150Z,20.4
2017-08-02T02:27:34.367Z,20.4
2017-08-02T02:28:33.578Z,20.4
2017-08-02T02:29:33.170Z,20.4
2017-08-02T02:30:32.376Z,20.4
2017-08-02T02:31:32.092Z,20.4
2017-08-02T02:32:31.306Z,20.4
2017-08-02T02:33:31.017Z,20.3
2017-08-02T02:34:29.993Z,20.3
2017-08-02T02:35:29.710Z,20.3
2017-08-02T02:36:28.931Z,20.3
2017-08-02T02:37:28.524Z,20.3
2017-08-02T02:38:27.750Z,20.3
2017-08-02T02:39:26.964Z,20.2
2017-08-02T02:40:26.687Z,20.3
2017-08-02T02:41:25.787Z,20.2
2017-08-02T02:42:25.505Z,20.2
2017-08-02T02:43:24.716Z,20.2
2017-08-02T02:44:24.196Z,20.2
2017-08-02T02:45:23.661Z,20.2
2017-08-02T02:45:54.066Z,20.2
2017-08-02T02:47:22.231Z,20.1
2017-08-02T02:48:21.458Z,20.1
2017-08-02T02:49:20.961Z,20.1
2017-08-02T02:50:20.320Z,20.1
2017-08-02T02:51:20.043Z,20
2017-08-02T02:52:19.112Z,20
2017-08-02T02:53:18.826Z,20.1
2017-08-02T02:54:18.038Z,20.1
2017-08-02T02:55:17.123Z,20.1
2017-08-02T02:56:16.836Z,20
2017-08-02T02:57:15.944Z,20.1
2017-08-02T02:58:15.536Z,20
2017-08-02T02:59:14.751Z,20
2017-08-02T03:00:14.463Z,20
2017-08-02T03:01:13.676Z,19.9
2017-08-02T03:01:44.196Z,19.9
2017-08-02T03:02:14.717Z,19.9
2017-08-02T03:03:12.178Z,19.9
2017-08-02T03:04:11.650Z,19.9
2017-08-02T03:05:11.364Z,19.9
2017-08-02T03:06:10.456Z,19.9
2017-08-02T03:07:10.162Z,19.9
2017-08-02T03:08:09.256Z,19.9
2017-08-02T03:09:08.842Z,19.9
2017-08-02T03:10:08.067Z,19.9
2017-08-02T03:11:07.276Z,19.9
2017-08-02T03:12:06.860Z,19.9
2017-08-02T03:13:06.455Z,19.9
2017-08-02T03:14:05.538Z,19.9
2017-08-02T03:15:05.257Z,19.9
2017-08-02T03:17:03.754Z,19.8
2017-08-02T03:18:03.353Z,19.8
2017-08-02T03:19:02.558Z,19.8
2017-08-02T03:20:01.776Z,19.8
2017-08-02T03:21:01.369Z,19.8
2017-08-02T03:22:00.462Z,19.8
2017-08-02T03:23:00.059Z,19.8
2017-08-02T03:23:59.412Z,19.8
2017-08-02T03:24:58.627Z,19.8
2017-08-02T03:25:58.228Z,19.8
2017-08-02T03:26:57.440Z,19.8
2017-08-02T03:27:57.032Z,19.7
2017-08-02T03:28:56.241Z,19.7
2017-08-02T03:29:55.454Z,19.8
2017-08-02T03:30:55.181Z,19.7
2017-08-02T03:31:25.703Z,19.7
2017-08-02T03:31:55.861Z,19.7
2017-08-02T03:32:26.246Z,19.7
2017-08-02T03:33:53.027Z,19.7
2017-08-02T03:34:52.733Z,19.7
2017-08-02T03:35:51.942Z,19.7
2017-08-02T03:36:50.907Z,19.7
2017-08-02T03:37:50.495Z,19.7
2017-08-02T03:38:49.853Z,19.7
2017-08-02T03:39:49.573Z,19.7
2017-08-02T03:40:48.777Z,19.7
2017-08-02T03:41:47.858Z,19.7
2017-08-02T03:42:47.442Z,19.7
2017-08-02T03:43:47.019Z,19.7
2017-08-02T03:44:46.101Z,19.7
2017-08-02T03:45:45.692Z,19.7
2017-08-02T03:47:44.684Z,19.7
2017-08-02T03:48:43.886Z,19.7
2017-08-02T03:49:42.979Z,19.7
2017-08-02T03:50:42.572Z,19.7
2017-08-02T03:51:42.168Z,19.7
2017-08-02T03:52:41.386Z,19.7
2017-08-02T03:53:40.586Z,19.7
2017-08-02T03:54:11.102Z,19.7
2017-08-02T03:54:41.612Z,19.7
2017-08-02T03:55:12.114Z,19.7
2017-08-02T03:56:38.873Z,19.7
2017-08-02T03:57:38.079Z,19.8
2017-08-02T03:58:37.679Z,19.8
2017-08-02T03:59:36.895Z,19.8
2017-08-02T04:00:36.101Z,19.8
2017-08-02T04:01:35.798Z,19.8
2017-08-02T04:02:34.888Z,19.9
2017-08-02T04:03:34.488Z,19.9
2017-08-02T04:04:33.695Z,19.9
2017-08-02T04:05:33.396Z,19.9
2017-08-02T04:06:32.609Z,19.9
2017-08-02T04:07:31.700Z,19.9
2017-08-02T04:08:31.292Z,19.9
2017-08-02T04:09:30.503Z,19.9
2017-08-02T04:10:30.225Z,19.9
2017-08-02T04:11:29.316Z,20
2017-08-02T04:12:29.027Z,19.9
2017-08-02T04:12:59.557Z,19.9
2017-08-02T04:13:30.078Z,19.9
2017-08-02T04:14:00.592Z,19.9
2017-08-02T04:15:26.866Z,20
2017-08-02T04:16:26.058Z,19.9
2017-08-02T04:17:25.764Z,19.9
2017-08-02T04:18:24.738Z,19.9
2017-08-02T04:19:24.440Z,19.9
2017-08-02T04:20:23.533Z,20
2017-08-02T04:21:23.133Z,19.9
2017-08-02T04:22:22.343Z,19.9
2017-08-02T04:23:21.920Z,19.9
2017-08-02T04:23:52.428Z,19.9
2017-08-02T04:24:22.821Z,20
2017-08-02T04:24:53.215Z,20
2017-08-02T04:25:23.632Z,20
2017-08-02T04:25:54.039Z,20
2017-08-02T04:27:19.417Z,20
2017-08-02T04:28:19.003Z,20
2017-08-02T04:29:18.103Z,20
2017-08-02T04:30:17.805Z,20
2017-08-02T04:31:17.008Z,20
2017-08-02T04:32:16.213Z,20
2017-08-02T04:33:15.919Z,20
2017-08-02T04:34:15.118Z,20
2017-08-02T04:35:14.333Z,20
2017-08-02T04:36:14.042Z,20
2017-08-02T04:37:13.132Z,20
2017-08-02T04:38:12.715Z,20
2017-08-02T04:39:11.808Z,20
2017-08-02T04:40:11.285Z,20
2017-08-02T04:41:10.497Z,20
2017-08-02T04:42:10.216Z,20
2017-08-02T04:43:09.425Z,20
2017-08-02T04:44:08.534Z,20
2017-08-02T04:45:08.008Z,19.9
2017-08-02T04:46:07.717Z,19.9
2017-08-02T04:47:06.917Z,19.9
2017-08-02T04:48:06.497Z,19.9
2017-08-02T04:49:05.582Z,19.9
2017-08-02T04:50:05.298Z,19.9
2017-08-02T04:51:04.283Z,19.9
2017-08-02T04:52:03.744Z,19.9
2017-08-02T04:53:03.330Z,19.9
2017-08-02T04:54:02.547Z,19.9
2017-08-02T04:55:02.269Z,19.9
2017-08-02T04:56:01.364Z,19.9
2017-08-02T04:57:00.716Z,20
2017-08-02T04:58:00.429Z,19.9
2017-08-02T04:58:59.644Z,20
2017-08-02T04:59:59.101Z,19.9
2017-08-02T05:00:58.252Z,19.9
2017-08-02T05:01:57.461Z,19.9
2017-08-02T05:03:56.560Z,19.9
2017-08-02T05:04:55.773Z,19.9
2017-08-02T05:06:54.540Z,19.9
2017-08-02T05:07:53.630Z,19.9
2017-08-02T05:08:53.598Z,19.9
2017-08-02T05:09:52.445Z,19.9
2017-08-02T05:10:52.054Z,19.9
2017-08-02T05:12:50.649Z,19.9
2017-08-02T05:13:50.138Z,19.9
2017-08-02T05:14:49.735Z,19.9
2017-08-02T05:16:48.486Z,19.9
2017-08-02T05:17:47.570Z,19.9
2017-08-02T05:18:47.273Z,19.9
2017-08-02T05:20:45.753Z,19.9
2017-08-02T05:21:16.144Z,19.9
2017-08-02T05:21:46.669Z,19.9
2017-08-02T05:22:17.208Z,19.9
2017-08-02T05:22:47.713Z,19.9
2017-08-02T05:23:18.232Z,19.9
2017-08-02T05:24:43.610Z,19.9
2017-08-02T05:25:42.701Z,19.9
2017-08-02T05:26:42.183Z,19.9
2017-08-02T05:27:41.772Z,19.9
2017-08-02T05:28:40.861Z,19.9
2017-08-02T05:29:40.073Z,19.9
2017-08-02T05:31:39.178Z,19.9
2017-08-02T05:32:38.374Z,19.9
2017-08-02T05:33:37.577Z,19.9
2017-08-02T05:34:37.275Z,19.9
2017-08-02T05:35:36.479Z,19.9
2017-08-02T05:36:36.179Z,19.9
2017-08-02T05:37:35.406Z,19.9
2017-08-02T05:38:34.502Z,19.9
2017-08-02T05:39:34.208Z,19.9
2017-08-02T05:40:33.553Z,19.9
2017-08-02T05:41:32.757Z,20
2017-08-02T05:42:31.962Z,20
2017-08-02T05:43:31.677Z,20
2017-08-02T05:44:30.771Z,20
2017-08-02T05:45:30.361Z,20.1
2017-08-02T05:46:29.552Z,20.1
2017-08-02T05:47:29.128Z,20.1
2017-08-02T05:48:28.724Z,20.1
2017-08-02T05:49:27.934Z,20.1
2017-08-02T05:50:27.021Z,20.1
2017-08-02T05:51:26.726Z,20.1
2017-08-02T05:52:25.822Z,20.1
2017-08-02T05:53:25.424Z,20.1
2017-08-02T05:54:24.662Z,20.1
2017-08-02T05:55:24.145Z,20.1
2017-08-02T05:56:23.339Z,20.1
2017-08-02T05:57:22.927Z,20.1
2017-08-02T05:58:22.015Z,20.1
2017-08-02T05:59:21.723Z,20.1
2017-08-02T06:00:20.828Z,20.2
2017-08-02T06:01:20.165Z,20.2
2017-08-02T06:01:50.577Z,20.2
2017-08-02T06:03:19.245Z,20.2
2017-08-02T06:03:49.760Z,20.2
2017-08-02T06:04:20.029Z,20.2
2017-08-02T06:05:18.100Z,20.2
2017-08-02T06:05:48.614Z,20.2
2017-08-02T06:12:13.351Z,20.3
2017-08-02T06:13:13.058Z,20.3
2017-08-02T06:13:43.458Z,20.3
2017-08-02T06:14:13.974Z,20.3
2017-08-02T06:14:44.493Z,20.3
2017-08-02T06:15:15.020Z,20.4
2017-08-02T06:15:45.541Z,20.4
2017-08-02T06:17:10.411Z,20.4
2017-08-02T06:18:10.000Z,20.5
2017-08-02T06:19:09.088Z,20.5
2017-08-02T06:21:08.188Z,20.5
2017-08-02T06:22:07.271Z,20.5
2017-08-02T06:24:06.255Z,20.6
2017-08-02T06:25:05.724Z,20.6
2017-08-02T06:26:04.810Z,20.7
2017-08-02T06:27:04.531Z,20.7
2017-08-02T06:28:03.618Z,20.7
2017-08-02T06:29:03.228Z,20.8
2017-08-02T06:30:02.313Z,20.8
2017-08-02T06:32:00.954Z,20.9
2017-08-02T06:33:00.547Z,20.9
2017-08-02T06:34:00.031Z,20.9
2017-08-02T06:34:59.247Z,21
2017-08-02T06:35:58.841Z,21
2017-08-02T06:36:57.921Z,21
2017-08-02T06:37:57.575Z,21
2017-08-02T06:38:56.669Z,21.1
2017-08-02T06:39:56.251Z,21.1
2017-08-02T06:40:55.610Z,21.1
2017-08-02T06:41:55.092Z,21.1
2017-08-02T06:42:54.787Z,21.2
2017-08-02T06:43:53.869Z,21.2
2017-08-02T06:44:53.452Z,21.2
2017-08-02T06:45:23.964Z,21.2
2017-08-02T06:46:52.234Z,21.2
2017-08-02T06:47:51.308Z,21.3
2017-08-02T06:48:50.682Z,21.3
2017-08-02T06:49:50.154Z,21.3
2017-08-02T06:50:49.854Z,21.3
2017-08-02T06:51:48.947Z,21.3
2017-08-02T06:52:48.660Z,21.3
2017-08-02T06:54:47.242Z,21.3
2017-08-02T06:55:46.950Z,21.2
2017-08-02T06:56:17.334Z,21.2
2017-08-02T06:56:47.728Z,21.3
2017-08-02T06:57:45.418Z,21.3
2017-08-02T06:58:45.139Z,21.3
2017-08-02T06:59:44.102Z,21.3
2017-08-02T07:00:43.581Z,21.3
2017-08-02T07:01:14.095Z,21.3
2017-08-02T07:02:42.369Z,21.4
2017-08-02T07:03:42.085Z,21.4
2017-08-02T07:04:41.294Z,21.4
2017-08-02T07:05:40.495Z,21.5
2017-08-02T07:06:40.071Z,21.4
2017-08-02T07:07:39.283Z,21.5
2017-08-02T07:08:38.746Z,21.4
2017-08-02T07:09:38.456Z,21.4
2017-08-02T07:10:37.673Z,21.5
2017-08-02T07:11:08.189Z,21.5
2017-08-02T07:11:38.694Z,21.5
2017-08-02T07:12:09.227Z,21.5
2017-08-02T07:13:36.120Z,21.5
2017-08-02T07:14:35.330Z,21.5
2017-08-02T07:15:34.919Z,21.5
2017-08-02T07:16:34.131Z,21.5
2017-08-02T07:17:33.377Z,21.5
2017-08-02T07:18:33.005Z,21.5
2017-08-02T07:19:32.207Z,21.6
2017-08-02T07:20:31.802Z,21.6
2017-08-02T07:22:30.282Z,21.6
2017-08-02T07:23:00.685Z,21.6
2017-08-02T07:23:31.092Z,21.6
2017-08-02T07:24:01.536Z,21.6
2017-08-02T07:24:32.059Z,21.6
2017-08-02T07:25:28.754Z,21.6
2017-08-02T07:26:27.952Z,21.6
2017-08-02T07:27:27.549Z,21.6
2017-08-02T07:28:27.156Z,21.6
2017-08-02T07:29:26.364Z,21.6
2017-08-02T07:30:25.977Z,21.6
2017-08-02T07:31:25.059Z,21.6
2017-08-02T07:32:24.768Z,21.6
2017-08-02T07:33:23.975Z,21.6
2017-08-02T07:34:23.683Z,21.6
2017-08-02T07:35:22.890Z,21.6
2017-08-02T07:36:22.492Z,21.6
2017-08-02T07:37:21.693Z,21.5
2017-08-02T07:38:21.155Z,21.6
2017-08-02T07:39:20.751Z,21.5
2017-08-02T07:40:19.728Z,21.5
2017-08-02T07:40:50.119Z,21.5
2017-08-02T07:41:20.302Z,21.5
2017-08-02T07:41:50.829Z,21.5
2017-08-02T07:42:20.996Z,21.5
2017-08-02T07:42:51.395Z,21.5
2017-08-02T07:44:17.767Z,21.5
2017-08-02T07:45:16.974Z,21.5
2017-08-02T07:46:16.176Z,21.4
2017-08-02T07:47:15.638Z,21.4
2017-08-02T07:48:15.219Z,21.4
2017-08-02T07:49:14.815Z,21.5
2017-08-02T07:50:14.033Z,21.5
2017-08-02T07:51:13.236Z,21.5
2017-08-02T07:51:43.754Z,21.5
2017-08-02T07:52:14.267Z,21.5
2017-08-02T07:52:44.789Z,21.5
2017-08-02T07:53:15.325Z,21.5
2017-08-02T07:53:45.846Z,21.5
2017-08-02T07:54:16.375Z,21.5
2017-08-02T07:54:46.890Z,21.5
2017-08-02T07:55:17.425Z,21.5
2017-08-02T07:55:47.814Z,21.5
2017-08-02T07:57:09.682Z,21.6
2017-08-02T07:58:09.403Z,21.6
2017-08-02T07:59:08.600Z,21.6
2017-08-02T08:00:08.193Z,21.6
2017-08-02T08:02:06.811Z,21.5
2017-08-02T08:03:06.425Z,21.5
2017-08-02T08:04:05.639Z,21.5
2017-08-02T08:04:36.030Z,21.5
2017-08-02T08:06:04.430Z,21.5
2017-08-02T08:07:03.784Z,21.5
2017-08-02T08:08:03.263Z,21.5
2017-08-02T08:09:02.980Z,21.6
2017-08-02T08:10:02.086Z,21.6
2017-08-02T08:11:01.559Z,21.6
2017-08-02T08:12:01.031Z,21.7
2017-08-02T08:14:00.137Z,21.7
2017-08-02T08:14:59.479Z,21.7
2017-08-02T08:15:58.947Z,21.7
2017-08-02T08:16:58.142Z,21.7
2017-08-02T08:17:57.873Z,21.8
2017-08-02T08:18:56.967Z,21.8
2017-08-02T08:19:56.551Z,21.9
2017-08-02T08:20:55.636Z,22
2017-08-02T08:21:55.348Z,22
2017-08-02T08:22:54.554Z,22
2017-08-02T08:23:54.143Z,22
2017-08-02T08:24:24.543Z,22
2017-08-02T08:24:55.061Z,22
2017-08-02T08:26:52.411Z,22.2
2017-08-02T08:27:51.505Z,22.1
2017-08-02T08:28:50.974Z,22.1
2017-08-02T08:29:50.598Z,22
2017-08-02T08:30:50.306Z,22
2017-08-02T08:31:49.167Z,22
2017-08-02T08:32:49.022Z,22
2017-08-02T08:33:48.496Z,22.1
2017-08-02T08:34:47.717Z,22.1
2017-08-02T08:35:18.126Z,22.1
2017-08-02T08:35:48.525Z,22.1
2017-08-02T08:36:18.913Z,22.1
2017-08-02T08:36:49.417Z,22.1
2017-08-02T08:37:45.886Z,22.1
2017-08-02T08:38:45.474Z,22.1
2017-08-02T08:39:44.562Z,22.2
2017-08-02T08:40:44.281Z,22.2
2017-08-02T08:41:43.482Z,22.2
2017-08-02T08:42:43.071Z,22.2
2017-08-02T08:43:42.782Z,22.2
2017-08-02T08:44:41.991Z,22.2
2017-08-02T08:45:41.195Z,22.2
2017-08-02T08:46:40.915Z,22.3
2017-08-02T08:47:40.124Z,22.3
2017-08-02T08:48:39.834Z,22.3
2017-08-02T08:49:39.045Z,22.3
2017-08-02T08:50:38.510Z,22.3
2017-08-02T08:51:09.027Z,22.3
2017-08-02T08:51:39.556Z,22.3
2017-08-02T08:52:10.065Z,22.3
2017-08-02T08:53:36.843Z,22.3
2017-08-02T08:54:35.932Z,22.3
2017-08-02T08:55:35.518Z,22.3
2017-08-02T08:56:35.092Z,22.4
2017-08-02T08:57:34.686Z,22.4
2017-08-02T08:58:33.779Z,22.4
2017-08-02T08:59:33.490Z,22.4
2017-08-02T09:00:32.560Z,22.4
2017-08-02T09:02:31.411Z,22.5
2017-08-02T09:03:31.125Z,22.5
2017-08-02T09:06:29.618Z,22.6
2017-08-02T09:07:28.707Z,22.6
2017-08-02T09:08:28.417Z,22.6
2017-08-02T09:09:27.621Z,22.7
2017-08-02T09:10:27.210Z,22.7
2017-08-02T09:11:26.573Z,22.7
2017-08-02T09:12:25.776Z,22.8
2017-08-02T09:13:25.485Z,22.8
2017-08-02T09:14:25.098Z,22.8
2017-08-02T09:15:24.067Z,22.8
2017-08-02T09:16:23.662Z,22.9
2017-08-02T09:18:22.644Z,22.8
2017-08-02T09:24:19.191Z,22.9
2017-08-02T09:27:17.569Z,23
2017-08-02T09:29:16.354Z,23
2017-08-02T09:31:15.080Z,23.1
2017-08-02T09:31:45.676Z,23.1
2017-08-02T09:32:16.199Z,23.1
2017-08-02T09:34:13.559Z,23.1
2017-08-02T09:34:44.080Z,23.1
2017-08-02T09:37:11.750Z,23.2
2017-08-02T09:39:10.861Z,23.3
2017-08-02T09:41:09.847Z,23.2
2017-08-02T09:42:08.932Z,23.2
2017-08-02T09:44:07.801Z,23.2
2017-08-02T09:44:38.201Z,23.2
2017-08-02T09:45:08.614Z,23.3
2017-08-02T09:45:39.122Z,23.3
2017-08-02T09:48:05.910Z,23.3
2017-08-02T09:52:03.667Z,23.4
2017-08-02T09:54:02.261Z,23.4
2017-08-02T09:55:01.849Z,23.4
2017-08-02T09:56:01.558Z,23.4
2017-08-02T09:58:00.158Z,23.6
2017-08-02T09:59:59.020Z,23.7
2017-08-02T10:00:58.715Z,23.8
2017-08-02T10:01:57.797Z,23.9
2017-08-02T10:02:57.377Z,24
2017-08-02T10:03:27.782Z,24
2017-08-02T10:06:55.468Z,24.3
2017-08-02T10:07:55.049Z,24.3
2017-08-02T10:08:54.257Z,24.3
2017-08-02T10:11:52.508Z,24.3
2017-08-02T10:12:52.147Z,24.3
2017-08-02T10:13:51.349Z,24.3
2017-08-02T10:14:21.503Z,24.3
2017-08-02T10:15:50.415Z,24.4
2017-08-02T10:16:20.809Z,24.4
2017-08-02T10:16:51.086Z,24.3
2017-08-02T10:17:21.380Z,24.3
2017-08-02T10:18:48.532Z,24.5
2017-08-02T10:20:47.620Z,24.7
2017-08-02T10:21:47.214Z,24.8
2017-08-02T10:22:46.915Z,24.9
2017-08-02T10:24:45.897Z,25.1
2017-08-02T10:25:16.291Z,25.1
2017-08-02T10:25:46.685Z,25.2
2017-08-02T10:26:44.883Z,25.1
2017-08-02T10:27:43.846Z,25.1
2017-08-02T10:29:42.933Z,25
2017-08-02T10:31:42.038Z,24.8
2017-08-02T10:32:41.238Z,24.8
2017-08-02T10:33:40.836Z,24.8
2017-08-02T10:35:39.696Z,24.6
2017-08-02T10:36:39.062Z,24.5
2017-08-02T10:37:39.040Z,24.6
2017-08-02T10:38:38.247Z,24.6
2017-08-02T10:39:37.958Z,24.7
2017-08-02T10:40:37.155Z,24.6
2017-08-02T10:43:35.669Z,24.8
2017-08-02T10:44:35.150Z,25
2017-08-02T10:49:32.696Z,25.6
2017-08-02T10:50:32.276Z,25.7
2017-08-02T10:51:31.746Z,25.8
2017-08-02T10:52:30.827Z,25.8
2017-08-02T10:56:29.212Z,25.4
2017-08-02T10:59:27.711Z,25.4
2017-08-02T11:00:26.914Z,25.2
2017-08-02T11:01:26.616Z,25.3
2017-08-02T11:02:25.708Z,25.3
2017-08-02T11:03:25.407Z,25.3
2017-08-02T11:04:24.899Z,25.3
2017-08-02T11:05:24.606Z,25.2
2017-08-02T11:06:23.804Z,25.2
2017-08-02T11:07:23.543Z,25.2
2017-08-02T11:08:23.007Z,25.2
2017-08-02T11:09:22.703Z,25.1
2017-08-02T11:10:21.912Z,25.1
2017-08-02T11:11:21.623Z,25
2017-08-02T11:13:20.730Z,24.9
2017-08-02T11:14:20.213Z,24.9
2017-08-02T11:15:19.427Z,24.9
2017-08-02T11:16:19.015Z,24.9
2017-08-02T11:17:18.472Z,24.8
2017-08-02T11:30:11.903Z,25.2
2017-08-02T11:32:10.886Z,25.2
2017-08-02T11:35:09.401Z,25.2
2017-08-02T11:44:05.013Z,25.2
2017-08-02T11:47:03.496Z,25.1
2017-08-02T11:52:01.029Z,25.4
2017-08-02T11:53:00.754Z,25.3
2017-08-02T11:54:59.359Z,25.7
2017-08-02T11:56:58.602Z,26
2017-08-02T11:57:29.118Z,26
2017-08-02T11:57:59.518Z,26
2017-08-02T11:58:29.919Z,26
2017-08-02T11:59:00.185Z,26
2017-08-02T11:59:57.282Z,26.3
2017-08-02T12:00:56.490Z,26.6
2017-08-02T12:01:56.090Z,26.6
2017-08-02T12:02:55.684Z,26.8
2017-08-02T12:03:55.378Z,26.5
2017-08-02T12:05:53.983Z,26.3
2017-08-02T12:06:53.691Z,26.4
2017-08-02T12:08:52.684Z,26.2
2017-08-02T12:09:52.395Z,26
2017-08-02T12:10:51.866Z,26.1
2017-08-02T12:11:51.088Z,26.1
2017-08-02T12:12:50.795Z,26.3
2017-08-02T12:13:50.257Z,26.4
2017-08-02T12:14:49.840Z,26.4
2017-08-02T12:15:49.427Z,26.2
2017-08-02T12:16:48.634Z,26.2
2017-08-02T12:17:48.227Z,26.1
2017-08-02T12:18:47.922Z,26.1
2017-08-02T12:19:18.322Z,26.1
2017-08-02T12:19:48.847Z,26
2017-08-02T12:21:46.578Z,25.9
2017-08-02T12:24:45.080Z,26.4
2017-08-02T12:25:44.427Z,26.6
2017-08-02T12:26:44.125Z,27
2017-08-02T12:27:43.715Z,27
2017-08-02T12:29:42.709Z,27.1
2017-08-02T12:30:42.189Z,27.2
2017-08-02T12:31:41.673Z,27.4
2017-08-02T12:32:41.253Z,27.3
2017-08-02T12:33:40.971Z,27.1
2017-08-02T12:34:40.182Z,26.8
2017-08-02T12:35:39.892Z,26.6
2017-08-02T12:36:39.089Z,26.9
2017-08-02T12:37:38.679Z,27
2017-08-02T12:38:38.277Z,26.9
2017-08-02T12:39:08.799Z,26.9
2017-08-02T12:39:39.319Z,26.8
2017-08-02T12:40:37.518Z,26.8
2017-08-02T12:41:37.217Z,26.7
2017-08-02T12:42:36.191Z,26.6
2017-08-02T12:43:35.791Z,27
2017-08-02T12:44:35.508Z,27
2017-08-02T12:45:35.229Z,26.9
2017-08-02T12:46:34.445Z,26.9
2017-08-02T12:47:33.913Z,26.9
2017-08-02T12:48:33.919Z,26.8
2017-08-02T12:49:33.010Z,26.8
2017-08-02T12:50:32.732Z,26.8
2017-08-02T12:51:32.429Z,27
2017-08-02T12:52:31.796Z,27
2017-08-02T12:53:31.512Z,27.4
2017-08-02T12:54:31.212Z,27.6
2017-08-02T12:55:01.723Z,27.6
2017-08-02T12:55:32.270Z,27.6
2017-08-02T12:56:02.783Z,27.6
2017-08-02T12:56:33.296Z,27.9
2017-08-02T12:57:29.256Z,27.8
2017-08-02T12:58:29.106Z,28
2017-08-02T12:59:28.566Z,28.1
2017-08-02T13:00:28.286Z,28.4
2017-08-02T13:01:27.892Z,28.5
2017-08-02T13:02:27.092Z,28.5
2017-08-02T13:04:26.194Z,28
2017-08-02T13:05:25.784Z,27.9
2017-08-02T13:06:25.479Z,27.8
2017-08-02T13:07:25.203Z,27.6
2017-08-02T13:08:24.409Z,27.1
2017-08-02T13:09:24.004Z,27
2017-08-02T13:10:23.725Z,26.8
2017-08-02T13:11:23.431Z,26.6
2017-08-02T13:12:23.041Z,26.3
2017-08-02T13:13:22.245Z,26.3
2017-08-02T13:14:21.836Z,26.3
2017-08-02T13:15:21.434Z,26.3
2017-08-02T13:16:21.143Z,26.2
2017-08-02T13:17:20.632Z,26.2
2017-08-02T13:18:20.349Z,26.4
2017-08-02T13:19:19.563Z,26.9
2017-08-02T13:20:19.038Z,27.1
2017-08-02T13:22:18.147Z,27.4
2017-08-02T13:23:17.730Z,27.5
2017-08-02T13:25:16.830Z,27.6
2017-08-02T13:28:15.704Z,27.9
2017-08-02T13:29:15.361Z,28.1
2017-08-02T13:30:14.575Z,28.3
2017-08-02T13:31:14.165Z,28.3
2017-08-02T13:32:13.906Z,28.3
2017-08-02T13:33:13.626Z,28.6
2017-08-02T13:34:12.835Z,28.9
2017-08-02T13:35:12.414Z,29
2017-08-02T13:36:11.881Z,29.2
2017-08-02T13:37:11.471Z,28.8
2017-08-02T13:38:11.176Z,28.6
2017-08-02T13:39:10.766Z,28.4
2017-08-02T13:40:10.478Z,28.3
2017-08-02T13:41:09.663Z,28.2
2017-08-02T13:42:09.365Z,28.2
2017-08-02T13:43:08.952Z,28.2
2017-08-02T13:44:08.547Z,27.9
2017-08-02T13:45:08.264Z,27.8
2017-08-02T13:46:07.485Z,27.6
2017-08-02T13:46:37.885Z,27.6
2017-08-02T13:47:08.279Z,27.5
2017-08-02T13:47:38.687Z,27.5
2017-08-02T13:48:09.089Z,27.4
2017-08-02T13:48:39.481Z,27.4
2017-08-02T13:49:09.989Z,27.2
2017-08-02T13:49:40.497Z,27.2
2017-08-02T13:50:11.017Z,27
2017-08-02T13:50:41.542Z,27
2017-08-02T13:52:05.164Z,27
2017-08-02T13:53:04.632Z,26.9
2017-08-02T13:54:04.234Z,26.9
2017-08-02T13:55:03.942Z,26.8
2017-08-02T13:56:03.528Z,26.8
2017-08-02T13:57:02.724Z,26.6
2017-08-02T13:58:02.202Z,26.6
2017-08-02T13:59:01.914Z,26.7
2017-08-02T14:00:01.638Z,26.6
2017-08-02T14:00:31.691Z,26.6
2017-08-02T14:02:00.599Z,26.6
2017-08-02T14:03:00.199Z,26.5
2017-08-02T14:03:59.908Z,26.5
2017-08-02T14:05:59.007Z,26.4
2017-08-02T14:06:58.225Z,26.4
2017-08-02T14:12:55.948Z,26.6
2017-08-02T14:13:55.156Z,26.7
2017-08-02T14:15:54.259Z,27
2017-08-02T14:16:53.853Z,27.1
2017-08-02T14:17:53.445Z,27.2
2017-08-02T14:18:53.030Z,27.2
2017-08-02T14:19:52.631Z,27.1
2017-08-02T14:20:23.147Z,27.1
2017-08-02T14:20:53.443Z,27
2017-08-02T14:21:23.729Z,27